Time;durP1;ratioP1;P1;durP2;ratioP2;P2;SDS_P1;SDS_P2;PMS_P1;PMS_P2;Temp;Humidity;BMP_temperature;BMP_pressure;BME280_temperature;BME280_humidity;BME280_pressure;Samples;Min_cycle;Max_cycle;Signal;HPM_P1;HPM_P2
2021/04/08 00:02:09;;;;;;;17.17;4.00;;;;;;;5.96;57.55;102224.25;4930614;28;123907;-70
2021/04/08 00:04:35;;;;;;;12.20;3.83;;;;;;;5.95;57.59;102222.53;4917425;28;118863;-70
2021/04/08 00:07:02;;;;;;;10.85;3.47;;;;;;;5.95;57.29;102222.53;4913425;28;118540;-70
2021/04/08 00:09:29;;;;;;;11.23;3.53;;;;;;;5.95;57.54;102227.78;4930128;28;124454;-70
2021/04/08 00:11:56;;;;;;;10.63;3.33;;;;;;;5.96;57.33;102223.41;4931716;28;123987;-70
2021/04/08 00:14:24;;;;;;;11.18;3.38;;;;;;;5.94;57.70;102231.25;4932532;28;120243;-70
2021/04/08 00:16:51;;;;;;;12.15;3.40;;;;;;;5.92;57.45;102227.75;4933078;28;119866;-70
2021/04/08 00:19:19;;;;;;;9.52;3.20;;;;;;;5.91;57.48;102226.00;4931627;28;125002;-70
2021/04/08 00:21:46;;;;;;;11.70;3.85;;;;;;;5.91;57.38;102231.25;4913166;28;123997;-70
2021/04/08 00:24:13;;;;;;;15.45;3.60;;;;;;;5.91;57.40;102230.38;4930740;28;120094;-70
2021/04/08 00:26:39;;;;;;;12.68;3.30;;;;;;;5.89;57.65;102235.66;4930507;28;118748;-70
2021/04/08 00:29:06;;;;;;;11.10;3.47;;;;;;;5.90;57.71;102234.78;4932722;28;123703;-70
2021/04/08 00:31:33;;;;;;;11.38;3.53;;;;;;;5.89;57.76;102238.28;4912612;28;122983;-70
2021/04/08 00:34:09;;;;;;;8.95;2.88;;;;;;;5.90;57.74;102237.41;4928378;28;119362;-70
2021/04/08 00:36:37;;;;;;;8.95;3.13;;;;;;;5.89;57.57;102238.28;4931672;28;119421;-70
2021/04/08 00:39:05;;;;;;;8.77;3.03;;;;;;;5.89;57.52;102243.53;4934494;28;124696;-70
2021/04/08 00:41:33;;;;;;;8.90;2.60;;;;;;;5.88;57.62;102241.81;4912577;28;123858;-70
2021/04/08 00:44:00;;;;;;;10.30;2.97;;;;;;;5.89;57.63;102247.94;4932880;28;119266;-70
2021/04/08 00:46:27;;;;;;;9.18;3.17;;;;;;;5.89;57.66;102248.78;4912042;28;118088;-70
2021/04/08 00:48:54;;;;;;;10.05;2.90;;;;;;;5.88;57.66;102249.69;4929135;28;124755;-70
2021/04/08 00:51:21;;;;;;;7.38;2.58;;;;;;;5.88;57.35;102249.69;4912136;28;124242;-70
2021/04/08 00:53:51;;;;;;;8.50;2.50;;;;;;;5.85;57.68;102255.81;4915568;28;118647;-70
2021/04/08 00:56:18;;;;;;;9.50;2.85;;;;;;;5.84;57.38;102261.09;4933209;28;118866;-70
2021/04/08 00:58:45;;;;;;;10.57;2.58;;;;;;;5.82;57.39;102263.72;4929058;28;123778;-70
2021/04/08 01:01:12;;;;;;;10.60;2.45;;;;;;;5.82;57.55;102257.56;4912442;28;124137;-70
2021/04/08 01:03:40;;;;;;;12.27;2.45;;;;;;;5.80;57.52;102265.47;4911801;28;121276;-70
2021/04/08 01:06:08;;;;;;;8.93;2.20;;;;;;;5.80;57.71;102259.31;4896250;28;119710;-70
2021/04/08 01:08:36;;;;;;;7.00;2.13;;;;;;;5.79;57.32;102262.84;4910423;28;122251;-70
2021/04/08 01:11:03;;;;;;;7.35;1.98;;;;;;;5.78;57.45;102261.09;4926853;28;124089;-70
2021/04/08 01:13:33;;;;;;;12.50;2.70;;;;;;;5.75;57.42;102261.97;4912148;28;119665;-70
2021/04/08 01:16:05;;;;;;;7.38;1.85;;;;;;;5.74;57.68;102264.59;4932039;28;119461;-70
2021/04/08 01:18:46;;;;;;;8.23;2.25;;;;;;;5.72;57.76;102258.47;4910411;28;124277;-70
2021/04/08 01:21:45;;;;;;;7.00;2.20;;;;;;;5.68;57.45;102264.63;4912862;28;123973;-70
2021/04/08 01:24:34;;;;;;;11.15;1.95;;;;;;;5.66;57.34;102262.88;4908992;28;119112;-70
2021/04/08 01:27:13;;;;;;;10.82;2.30;;;;;;;5.64;57.57;102259.38;4911753;28;118220;-70
2021/04/08 01:29:57;;;;;;;7.18;1.73;;;;;;;5.64;57.71;102259.38;4928138;28;123383;-71
2021/04/08 01:32:26;;;;;;;8.80;1.90;;;;;;;5.61;57.62;102259.38;4926771;28;124183;-70
2021/04/08 01:34:57;;;;;;;6.70;1.95;;;;;;;5.61;57.71;102262.03;4929362;28;119999;-70
2021/04/08 01:37:47;;;;;;;5.47;1.90;;;;;;;5.60;57.97;102262.88;4928795;28;119262;-70
2021/04/08 01:40:15;;;;;;;10.90;2.10;;;;;;;5.64;57.68;102263.75;4934019;28;124290;-70
2021/04/08 01:42:44;;;;;;;6.97;2.47;;;;;;;5.65;57.89;102266.38;4911263;28;124018;-70
2021/04/08 01:45:13;;;;;;;8.05;1.98;;;;;;;5.69;57.80;102266.34;4931822;28;119670;-70
2021/04/08 01:47:43;;;;;;;9.75;2.13;;;;;;;5.70;57.96;102266.38;4911477;28;117849;-70
2021/04/08 01:50:11;;;;;;;10.07;1.90;;;;;;;5.72;57.90;102266.38;4928535;28;124121;-70
2021/04/08 01:52:41;;;;;;;8.90;2.03;;;;;;;5.74;58.01;102269.88;4911009;28;123126;-70
2021/04/08 01:55:09;;;;;;;10.07;2.25;;;;;;;5.77;57.85;102267.25;4931129;28;120641;-70
2021/04/08 01:57:37;;;;;;;7.38;1.95;;;;;;;5.77;57.86;102269.88;4929178;28;120839;-70
2021/04/08 02:00:08;;;;;;;5.43;1.88;;;;;;;5.79;57.90;102268.09;4928227;28;124826;-70
2021/04/08 02:02:37;;;;;;;7.82;2.00;;;;;;;5.82;57.87;102268.09;4928809;28;124906;-70
2021/04/08 02:05:10;;;;;;;9.50;2.20;;;;;;;5.84;57.94;102266.34;4929182;28;119441;-70
2021/04/08 02:07:37;;;;;;;9.95;1.92;;;;;;;5.85;57.96;102265.47;4926352;28;119680;-70
2021/04/08 02:10:10;;;;;;;12.13;1.95;;;;;;;5.88;57.81;102277.72;4932411;28;124952;-70
2021/04/08 02:12:40;;;;;;;6.80;1.70;;;;;;;5.88;57.60;102268.09;4911045;28;124191;-70
2021/04/08 02:15:09;;;;;;;6.85;1.70;;;;;;;5.89;57.70;102274.22;4911491;28;118558;-70
2021/04/08 02:17:37;;;;;;;6.93;2.10;;;;;;;5.91;57.92;102278.59;4928473;28;118998;-70
2021/04/08 02:20:15;;;;;;;7.78;1.75;;;;;;;5.91;58.14;102278.59;4930123;28;124447;-70
2021/04/08 02:22:47;;;;;;;7.50;1.80;;;;;;;5.93;58.09;102271.56;4927955;28;124311;-70
2021/04/08 02:25:16;;;;;;;11.30;1.90;;;;;;;5.94;57.97;102273.31;4911077;28;117647;-70
2021/04/08 02:27:44;;;;;;;12.52;2.10;;;;;;;5.97;57.88;102278.63;4931410;28;119257;-70
2021/04/08 02:30:13;;;;;;;10.02;1.98;;;;;;;5.97;57.93;102278.63;4926529;28;123179;-69
2021/04/08 02:32:40;;;;;;;11.48;1.92;;;;;;;6.00;58.05;102273.34;4894591;28;122779;-70
2021/04/08 02:35:10;;;;;;;6.43;1.58;;;;;;;6.03;57.83;102269.84;4928474;28;119089;-70
2021/04/08 02:37:37;;;;;;;8.25;1.80;;;;;;;6.04;57.98;102269.81;4910987;28;118852;-70
2021/04/08 02:40:05;;;;;;;10.65;2.40;;;;;;;6.07;57.84;102268.06;4927579;28;123874;-70
2021/04/08 02:42:32;;;;;;;8.65;1.70;;;;;;;6.11;58.03;102275.06;4910333;28;123681;-70
2021/04/08 02:44:59;;;;;;;4.70;1.65;;;;;;;6.11;57.79;102269.81;4927685;28;120712;-70
2021/04/08 02:47:26;;;;;;;11.60;2.03;;;;;;;6.13;57.77;102275.94;4931554;28;119638;-70
2021/04/08 02:49:52;;;;;;;5.93;1.63;;;;;;;6.14;57.83;102275.03;4909260;28;123330;-70
2021/04/08 02:52:24;;;;;;;4.97;2.00;;;;;;;6.14;57.77;102282.94;4928330;28;124653;-70
2021/04/08 02:55:03;;;;;;;8.52;2.42;;;;;;;6.16;57.58;102283.78;4925778;28;119133;-70
2021/04/08 02:58:03;;;;;;;10.45;2.25;;;;;;;6.15;57.59;102282.94;4926084;28;118713;-70
2021/04/08 03:00:33;;;;;;;11.50;2.10;;;;;;;6.18;57.66;102282.06;4902278;28;123983;-70
2021/04/08 03:03:05;;;;;;;7.20;2.17;;;;;;;6.17;57.37;102281.16;4928423;28;125660;-70
2021/04/08 03:05:35;;;;;;;6.63;2.00;;;;;;;6.19;57.61;102289.06;4928709;28;120144;-70
2021/04/08 03:08:06;;;;;;;13.98;2.33;;;;;;;6.20;57.56;102294.31;4928378;28;122027;-70
2021/04/08 03:10:33;;;;;;;11.20;2.60;;;;;;;6.22;57.51;102289.06;4924481;28;124882;-70
2021/04/08 03:13:01;;;;;;;9.40;2.08;;;;;;;6.22;57.59;102278.53;4929387;28;124645;-70
2021/04/08 03:15:32;;;;;;;7.10;1.92;;;;;;;6.22;57.70;102281.16;4931261;28;120009;-70
2021/04/08 03:18:01;;;;;;;6.78;2.10;;;;;;;6.22;57.61;102286.44;4913557;28;118303;-70
2021/04/08 03:20:29;;;;;;;10.63;2.25;;;;;;;6.23;57.71;102281.16;4914915;28;124960;-70
2021/04/08 03:22:58;;;;;;;10.13;1.90;;;;;;;6.24;57.83;102277.63;4931201;28;124977;-70
2021/04/08 03:25:25;;;;;;;6.13;2.00;;;;;;;6.29;57.70;102280.28;4913777;28;118032;-70
2021/04/08 03:27:52;;;;;;;7.97;2.00;;;;;;;6.30;57.75;102276.75;4934431;28;119176;-70
2021/04/08 03:30:19;;;;;;;12.02;2.38;;;;;;;6.33;57.82;102266.22;4912568;28;122599;-70
2021/04/08 03:32:47;;;;;;;5.80;2.20;;;;;;;6.35;57.69;102268.84;4931142;28;124672;-70
2021/04/08 03:35:15;;;;;;;11.30;2.53;;;;;;;6.37;57.84;102273.22;4897053;28;119137;-70
2021/04/08 03:37:42;;;;;;;8.35;2.60;;;;;;;6.38;57.63;102264.41;4913094;28;118981;-70
2021/04/08 03:40:10;;;;;;;12.63;2.40;;;;;;;6.38;57.60;102269.69;4912974;28;123474;-70
2021/04/08 03:42:37;;;;;;;11.25;2.28;;;;;;;6.39;57.60;102271.44;4931108;28;124363;-70
2021/04/08 03:45:05;;;;;;;8.50;2.58;;;;;;;6.40;57.56;102267.94;4897236;28;119190;-70
2021/04/08 03:47:32;;;;;;;8.25;2.83;;;;;;;6.40;57.56;102270.56;4934261;28;118983;-70
2021/04/08 03:50:00;;;;;;;12.13;2.75;;;;;;;6.40;57.52;102273.22;4912181;28;123016;-70
2021/04/08 03:52:27;;;;;;;12.43;2.90;;;;;;;6.40;57.74;102278.47;4916142;28;124129;-70
2021/04/08 03:54:56;;;;;;;9.52;2.85;;;;;;;6.40;57.78;102277.56;4912944;28;118042;-70
2021/04/08 03:57:24;;;;;;;11.02;3.25;;;;;;;6.40;57.65;102273.22;4913121;28;119429;-70
2021/04/08 03:59:52;;;;;;;9.75;3.35;;;;;;;6.39;57.76;102271.44;4911506;28;123559;-70
2021/04/08 04:02:19;;;;;;;7.38;2.92;;;;;;;6.40;57.72;102273.22;4930294;28;123981;-70
2021/04/08 04:04:47;;;;;;;11.40;2.83;;;;;;;6.39;57.54;102266.19;4933623;28;119056;-69
2021/04/08 04:07:15;;;;;;;8.80;3.15;;;;;;;6.39;57.83;102266.19;4910459;28;118460;-70
2021/04/08 04:09:42;;;;;;;13.75;3.20;;;;;;;6.40;57.54;102273.22;4912045;28;123063;-70
2021/04/08 04:12:14;;;;;;;8.15;3.45;;;;;;;6.39;57.60;102266.19;4910903;28;123026;-70
2021/04/08 04:14:44;;;;;;;10.68;2.80;;;;;;;6.41;57.55;102269.69;4928678;28;119424;-70
2021/04/08 04:17:27;;;;;;;6.43;3.13;;;;;;;6.40;57.41;102262.69;4913355;28;117155;-70
2021/04/08 04:19:55;;;;;;;11.05;3.20;;;;;;;6.41;57.48;102267.03;4909052;28;123110;-70
2021/04/08 04:22:38;;;;;;;8.45;3.50;;;;;;;6.41;57.56;102269.69;4929349;28;124392;-70
2021/04/08 04:25:06;;;;;;;7.85;3.40;;;;;;;6.40;57.74;102262.69;4929020;28;120327;-70
2021/04/08 04:27:33;;;;;;;9.13;3.40;;;;;;;6.41;57.43;102269.69;4930284;28;120357;-70
2021/04/08 04:30:00;;;;;;;13.02;3.28;;;;;;;6.42;57.72;102270.53;4914728;28;123999;-70
2021/04/08 04:32:27;;;;;;;10.48;3.33;;;;;;;6.41;57.67;102274.94;4896481;28;122804;-70
2021/04/08 04:34:53;;;;;;;9.45;3.40;;;;;;;6.41;57.38;102269.69;4933286;28;119858;-70
2021/04/08 04:37:20;;;;;;;8.90;3.25;;;;;;;6.42;57.49;102276.69;4913031;28;119593;-70
2021/04/08 04:39:48;;;;;;;10.98;3.58;;;;;;;6.41;57.52;102280.19;4929748;28;123948;-70
2021/04/08 04:42:14;;;;;;;8.43;3.25;;;;;;;6.40;57.67;102283.72;4896827;28;123030;-70
2021/04/08 04:44:41;;;;;;;11.32;3.20;;;;;;;6.42;57.57;102281.97;4930244;28;119344;-70
2021/04/08 04:47:08;;;;;;;10.27;3.80;;;;;;;6.42;57.58;102281.97;4930190;28;118846;-70
2021/04/08 04:49:34;;;;;;;11.57;4.07;;;;;;;6.42;57.57;102287.22;4909767;28;123299;-70
2021/04/08 04:52:01;;;;;;;12.02;3.80;;;;;;;6.40;57.34;102281.09;4929491;28;123893;-70
2021/04/08 04:54:28;;;;;;;12.60;4.18;;;;;;;6.40;57.21;102278.47;4931323;28;118922;-69
2021/04/08 04:56:54;;;;;;;15.25;4.15;;;;;;;6.39;57.25;102292.50;4929860;28;119001;-70
2021/04/08 04:59:21;;;;;;;8.65;3.63;;;;;;;6.37;57.45;102289.00;4911481;28;123840;-70
2021/04/08 05:01:48;;;;;;;11.82;4.25;;;;;;;6.37;57.20;102293.41;4912340;28;123637;-70
2021/04/08 05:04:15;;;;;;;10.25;3.90;;;;;;;6.34;57.37;102289.00;4929685;28;119498;-70
2021/04/08 05:06:42;;;;;;;14.50;4.28;;;;;;;6.32;57.18;102296.03;4931584;28;118135;-70
2021/04/08 05:09:08;;;;;;;11.85;4.55;;;;;;;6.30;57.06;102297.78;4932513;28;124850;-70
2021/04/08 05:11:35;;;;;;;12.25;3.92;;;;;;;6.30;57.34;102292.53;4913397;28;123133;-70
2021/04/08 05:14:01;;;;;;;14.90;4.50;;;;;;;6.29;57.20;102295.16;4933486;28;120297;-70
2021/04/08 05:16:28;;;;;;;11.88;4.18;;;;;;;6.28;57.50;102298.69;4930927;28;119867;-70
2021/04/08 05:18:55;;;;;;;11.32;4.25;;;;;;;6.27;57.54;102292.53;4895627;28;123210;-70
2021/04/08 05:21:21;;;;;;;11.80;4.00;;;;;;;6.28;57.32;102291.66;4930640;28;124192;-70
2021/04/08 05:23:48;;;;;;;13.40;4.20;;;;;;;6.28;57.33;102289.03;4929783;28;119256;-70
2021/04/08 05:26:15;;;;;;;11.73;4.05;;;;;;;6.28;57.23;102294.28;4930849;28;118147;-70
2021/04/08 05:28:42;;;;;;;13.68;4.60;;;;;;;6.27;57.25;102292.53;4904426;28;124026;-70
2021/04/08 05:31:08;;;;;;;9.80;4.60;;;;;;;6.26;57.58;102290.78;4929879;28;123572;-70
2021/04/08 05:33:35;;;;;;;13.27;4.60;;;;;;;6.26;56.88;102295.19;4906768;28;119191;-70
2021/04/08 05:36:02;;;;;;;15.98;4.85;;;;;;;6.26;57.48;102296.06;4929438;28;118684;-69
2021/04/08 05:38:29;;;;;;;12.50;4.45;;;;;;;6.27;57.18;102303.06;4927385;28;124694;-70
2021/04/08 05:40:55;;;;;;;10.38;4.50;;;;;;;6.28;57.20;102304.81;4912012;28;123375;-70
2021/04/08 05:43:22;;;;;;;11.63;4.65;;;;;;;6.29;57.37;102301.31;4910346;28;118376;-70
2021/04/08 05:45:48;;;;;;;12.05;4.55;;;;;;;6.31;57.27;102302.19;4911721;28;117875;-70
2021/04/08 05:48:17;;;;;;;13.07;5.00;;;;;;;6.33;57.24;102305.69;4910792;28;123927;-70
2021/04/08 05:50:43;;;;;;;12.57;4.50;;;;;;;6.32;57.10;102301.28;4928982;28;126033;-70
2021/04/08 05:53:10;;;;;;;11.60;4.43;;;;;;;6.32;56.80;102306.56;4929026;28;119560;-70
2021/04/08 05:55:36;;;;;;;10.20;4.90;;;;;;;6.33;56.98;102310.94;4929754;28;119891;-70
2021/04/08 05:58:03;;;;;;;7.63;4.60;;;;;;;6.34;56.89;102310.03;4910891;28;123048;-70
2021/04/08 06:00:30;;;;;;;13.60;4.82;;;;;;;6.35;57.01;102311.81;4897119;28;122915;-70
2021/04/08 06:02:56;;;;;;;8.15;3.80;;;;;;;6.35;56.67;102301.28;4908189;28;119008;-70
2021/04/08 06:05:23;;;;;;;9.93;4.68;;;;;;;6.36;56.85;102303.03;4911327;28;119801;-70
2021/04/08 06:07:49;;;;;;;7.55;4.22;;;;;;;6.36;56.52;102308.28;4928967;28;124095;-70
2021/04/08 06:10:16;;;;;;;11.10;4.43;;;;;;;6.36;56.57;102313.53;4930645;28;123743;-70
2021/04/08 06:12:44;;;;;;;12.05;4.15;;;;;;;6.35;56.69;102310.94;4911888;28;119232;-70
2021/04/08 06:15:11;;;;;;;13.25;4.88;;;;;;;6.36;56.62;102313.53;4911696;28;119058;-70
2021/04/08 06:17:38;;;;;;;8.73;4.03;;;;;;;6.37;56.63;102312.69;4928447;28;124774;-70
2021/04/08 06:20:06;;;;;;;12.23;4.47;;;;;;;6.40;56.37;102320.56;4911129;28;123036;-70
2021/04/08 06:22:32;;;;;;;10.85;4.45;;;;;;;6.43;56.62;102320.53;4929008;28;119162;-70
2021/04/08 06:24:59;;;;;;;9.40;4.68;;;;;;;6.50;56.75;102325.78;4929105;28;118826;-70
2021/04/08 06:27:28;;;;;;;10.18;4.13;;;;;;;6.57;57.01;102328.41;4931038;28;124222;-70
2021/04/08 06:29:55;;;;;;;10.57;4.60;;;;;;;6.66;57.03;102323.97;4891690;28;123556;-70
2021/04/08 06:32:22;;;;;;;8.98;4.03;;;;;;;6.73;57.05;102318.66;4895361;28;118569;-70
2021/04/08 06:34:49;;;;;;;12.82;4.63;;;;;;;6.81;56.41;102327.38;4910798;28;119388;-70
2021/04/08 06:37:16;;;;;;;10.70;4.20;;;;;;;6.88;56.34;102328.22;4910472;28;123536;-71
2021/04/08 06:39:43;;;;;;;8.48;4.38;;;;;;;6.94;56.27;102332.59;4911738;28;124297;-71
2021/04/08 06:42:10;;;;;;;12.15;4.10;;;;;;;6.98;56.03;102329.91;4928355;28;119218;-71
2021/04/08 06:44:37;;;;;;;9.77;4.00;;;;;;;7.03;56.28;102335.16;4912460;28;119371;-71
2021/04/08 06:47:05;;;;;;;11.27;4.63;;;;;;;7.08;56.22;102341.25;4932771;28;124014;-70
2021/04/08 06:49:43;;;;;;;12.52;5.00;;;;;;;7.12;55.96;102337.75;4911098;28;123118;-71
2021/04/08 06:52:12;;;;;;;13.38;5.05;;;;;;;7.17;55.77;102341.22;4899366;28;120412;-71
2021/04/08 06:54:38;;;;;;;13.50;4.55;;;;;;;7.21;55.63;102342.97;4929824;28;120267;-70
2021/04/08 06:57:05;;;;;;;10.43;5.03;;;;;;;7.28;55.82;102345.53;4928449;28;123286;-71
2021/04/08 06:59:32;;;;;;;12.65;5.03;;;;;;;7.34;55.59;102334.94;4922148;28;123085;-71
2021/04/08 07:02:00;;;;;;;14.25;5.20;;;;;;;7.41;55.34;102349.84;4927599;28;119956;-70
2021/04/08 07:04:27;;;;;;;9.40;4.95;;;;;;;7.47;55.36;102343.66;4929038;28;118809;-71
2021/04/08 07:06:53;;;;;;;11.82;5.15;;;;;;;7.51;55.33;102346.22;4911069;28;123415;-70
2021/04/08 07:09:20;;;;;;;11.18;4.97;;;;;;;7.55;55.27;102347.97;4927346;28;124259;-71
2021/04/08 07:11:46;;;;;;;10.18;4.60;;;;;;;7.59;55.32;102354.97;4929688;28;119546;-71
2021/04/08 07:14:15;;;;;;;12.52;5.35;;;;;;;7.63;54.99;102350.56;4909880;28;119873;-70
2021/04/08 07:16:42;;;;;;;10.60;4.90;;;;;;;7.70;54.93;102351.34;4926866;28;124530;-71
2021/04/08 07:19:08;;;;;;;14.35;5.40;;;;;;;7.75;54.74;102354.84;4925809;28;124107;-70
2021/04/08 07:21:37;;;;;;;8.73;5.20;;;;;;;7.81;54.51;102360.03;4925084;28;119437;-69
2021/04/08 07:24:18;;;;;;;11.20;5.18;;;;;;;7.86;54.45;102363.53;4910801;28;119509;-69
2021/04/08 07:26:58;;;;;;;11.90;5.70;;;;;;;7.91;54.66;102366.09;4924017;28;123364;-71
2021/04/08 07:29:46;;;;;;;8.27;5.03;;;;;;;7.94;54.55;102361.69;4923811;28;123805;-71
2021/04/08 07:32:18;;;;;;;13.00;5.32;;;;;;;8.00;54.19;102360.75;4928188;28;119607;-71
2021/04/08 07:34:47;;;;;;;12.85;5.30;;;;;;;8.06;54.12;102357.16;4926063;28;118698;-71
2021/04/08 07:37:19;;;;;;;10.88;4.63;;;;;;;8.12;53.84;102359.78;4909574;28;124234;-71
2021/04/08 07:39:46;;;;;;;11.65;5.15;;;;;;;8.17;54.08;102357.94;4926354;28;124606;-71
2021/04/08 07:42:15;;;;;;;8.18;4.90;;;;;;;8.21;53.74;102359.63;4930311;28;120969;-71
2021/04/08 07:44:56;;;;;;;13.57;5.72;;;;;;;8.24;53.60;102354.34;4907160;28;119544;-70
2021/04/08 07:47:27;;;;;;;11.50;5.38;;;;;;;8.30;53.36;102363.97;4922042;28;124778;-70
2021/04/08 07:50:14;;;;;;;10.48;5.05;;;;;;;8.33;53.54;102363.94;4924267;28;123893;-70
2021/04/08 07:52:48;;;;;;;8.80;4.95;;;;;;;8.37;53.14;102361.22;4907557;28;119938;-71
2021/04/08 07:55:30;;;;;;;13.52;5.30;;;;;;;8.43;52.96;102354.19;4923874;28;119360;-71
2021/04/08 07:58:06;;;;;;;9.70;5.10;;;;;;;8.49;52.78;102354.09;4893337;28;122855;-71
2021/04/08 08:00:38;;;;;;;9.23;5.30;;;;;;;8.60;53.35;102356.59;4910428;28;125116;-72
2021/04/08 08:03:25;;;;;;;9.88;5.30;;;;;;;8.71;52.94;102350.28;4929562;28;119366;-71
2021/04/08 08:05:58;;;;;;;8.60;5.40;;;;;;;8.87;52.72;102355.38;4944920;22;119003;-68
2021/04/08 08:08:45;;;;;;;8.45;4.85;;;;;;;9.02;52.78;102356.94;4891651;28;122506;-66
2021/04/08 08:11:14;;;;;;;12.35;4.80;;;;;;;9.19;52.73;102356.69;4888659;28;122903;-67
2021/04/08 08:13:48;;;;;;;10.35;4.80;;;;;;;9.33;52.32;102349.44;4891965;28;119709;-67
2021/04/08 08:16:20;;;;;;;9.98;4.82;;;;;;;9.50;52.24;102351.81;4890126;28;119325;-68
2021/04/08 08:18:48;;;;;;;13.25;4.47;;;;;;;9.65;52.31;102358.63;4888787;28;124183;-68
2021/04/08 08:21:28;;;;;;;8.75;4.38;;;;;;;9.81;51.41;102352.13;4891473;28;124876;-68
2021/04/08 08:23:57;;;;;;;9.90;4.55;;;;;;;9.96;51.21;102344.84;4889489;28;119614;-68
2021/04/08 08:26:43;;;;;;;9.27;4.57;;;;;;;10.09;51.46;102355.16;4889211;28;118716;-68
2021/04/08 08:29:10;;;;;;;9.65;4.38;;;;;;;10.23;51.09;102344.31;4886990;28;123892;-68
2021/04/08 08:31:53;;;;;;;7.75;4.13;;;;;;;10.37;50.55;102351.16;4897376;28;122058;-67
2021/04/08 08:34:25;;;;;;;6.40;3.90;;;;;;;10.49;49.85;102361.47;4887410;28;120383;-68
2021/04/08 08:36:53;;;;;;;7.18;3.60;;;;;;;10.59;49.34;102363.06;4891043;28;119905;-68
2021/04/08 08:39:26;;;;;;;6.22;3.22;;;;;;;10.68;48.68;102367.28;4890327;28;123808;-67
2021/04/08 08:41:56;;;;;;;10.82;3.22;;;;;;;10.77;48.59;102360.91;4888591;28;124631;-67
2021/04/08 08:44:23;;;;;;;6.80;3.25;;;;;;;10.87;48.24;102362.47;4889571;28;118267;-67
2021/04/08 08:47:02;;;;;;;7.63;2.92;;;;;;;10.97;47.66;102358.72;4890095;28;119126;-67
2021/04/08 08:49:35;;;;;;;8.32;3.25;;;;;;;11.08;47.20;102362.00;4890450;28;124165;-68
2021/04/08 08:52:04;;;;;;;6.57;3.42;;;;;;;11.19;46.91;102368.81;4888332;28;124645;-67
2021/04/08 08:54:33;;;;;;;10.48;3.38;;;;;;;11.25;46.28;102358.09;4888722;28;119431;-67
2021/04/08 08:57:01;;;;;;;5.18;3.20;;;;;;;11.33;46.09;102350.81;4891138;28;118853;-68
2021/04/08 08:59:29;;;;;;;5.53;3.10;;;;;;;11.43;45.76;102352.34;4890873;28;123885;-68
2021/04/08 09:01:55;;;;;;;5.32;3.28;;;;;;;11.54;45.49;102351.19;4890896;28;123332;-67
2021/04/08 09:04:23;;;;;;;4.45;3.35;;;;;;;11.67;45.44;102357.94;4874413;28;118621;-68
2021/04/08 09:07:14;;;;;;;9.05;3.53;;;;;;;11.82;44.61;102354.88;4890532;28;119473;-68
2021/04/08 09:09:45;;;;;;;5.18;3.55;;;;;;;11.88;44.28;102354.75;4888364;28;124537;-68
2021/04/08 09:12:17;;;;;;;8.82;3.78;;;;;;;11.93;43.63;102369.72;4887385;28;124142;-67
2021/04/08 09:14:45;;;;;;;8.88;4.47;;;;;;;11.92;43.57;102350.22;4888058;28;119112;-68
2021/04/08 09:17:13;;;;;;;7.13;4.22;;;;;;;11.91;43.46;102366.22;4893074;28;119308;-67
2021/04/08 09:19:40;;;;;;;8.40;4.50;;;;;;;11.87;43.15;102358.31;4888094;28;124509;-69
2021/04/08 09:22:08;;;;;;;7.97;4.13;;;;;;;11.84;42.99;102353.06;4884819;28;124623;-69
2021/04/08 09:24:43;;;;;;;9.35;4.70;;;;;;;11.79;43.37;102360.28;4889620;28;121041;-67
2021/04/08 09:27:10;;;;;;;5.97;4.00;;;;;;;11.83;43.65;102355.78;4889569;28;120065;-67
2021/04/08 09:29:37;;;;;;;8.68;4.35;;;;;;;11.84;43.25;102358.38;4888774;28;123423;-67
2021/04/08 09:32:30;;;;;;;8.30;4.38;;;;;;;11.84;43.51;102353.06;4889245;28;124200;-67
2021/04/08 09:35:03;;;;;;;8.20;4.50;;;;;;;11.88;42.73;102348.53;4881493;28;119625;-68
2021/04/08 09:37:48;;;;;;;5.93;4.22;;;;;;;11.88;42.87;102341.47;4884735;28;120120;-69
2021/04/08 09:40:20;;;;;;;9.00;4.13;;;;;;;11.90;42.74;102340.59;4887417;28;124582;-68
2021/04/08 09:42:55;;;;;;;6.82;4.13;;;;;;;11.91;42.60;102342.34;4879126;28;124437;-68
2021/04/08 09:45:22;;;;;;;6.57;4.22;;;;;;;11.95;42.77;102338.69;4874264;28;118111;-67
2021/04/08 09:48:07;;;;;;;6.53;4.20;;;;;;;12.00;42.80;102347.41;4873354;28;119193;-68
2021/04/08 09:50:46;;;;;;;5.68;4.10;;;;;;;12.04;42.38;102343.75;4887484;28;123489;-66
2021/04/08 09:53:21;;;;;;;7.18;4.47;;;;;;;12.04;41.83;102338.44;4888817;28;123839;-66
2021/04/08 09:55:54;;;;;;;7.72;4.60;;;;;;;12.07;41.71;102338.34;4883306;28;120135;-66
2021/04/08 09:58:27;;;;;;;6.40;4.40;;;;;;;12.09;41.28;102339.16;4886375;28;119166;-66
2021/04/08 10:00:56;;;;;;;7.45;4.15;;;;;;;12.11;41.13;102334.72;4887276;28;124109;-66
2021/04/08 10:03:28;;;;;;;7.57;4.70;;;;;;;12.13;40.82;102343.50;4889190;28;123916;-66
2021/04/08 10:05:55;;;;;;;6.47;4.63;;;;;;;12.14;41.03;102333.75;4885581;28;120407;-66
2021/04/08 10:08:24;;;;;;;9.27;5.22;;;;;;;12.15;40.57;102336.34;4888476;28;119188;-67
2021/04/08 10:10:51;;;;;;;13.38;4.78;;;;;;;12.17;40.12;102329.22;4873237;28;124280;-66
2021/04/08 10:13:23;;;;;;;7.95;4.80;;;;;;;12.18;40.25;102330.94;4888198;28;123334;-66
2021/04/08 10:15:52;;;;;;;8.55;4.53;;;;;;;12.21;40.38;102325.56;4889601;28;120305;-67
2021/04/08 10:18:20;;;;;;;7.93;4.22;;;;;;;12.27;40.37;102330.69;4871141;28;118938;-67
2021/04/08 10:20:49;;;;;;;5.80;4.30;;;;;;;12.34;40.02;102325.19;4889081;28;123295;-68
2021/04/08 10:23:29;;;;;;;5.13;4.18;;;;;;;12.35;40.08;102326.94;4890065;28;124173;-67
2021/04/08 10:26:01;;;;;;;7.68;4.10;;;;;;;12.39;39.72;102328.59;4871049;28;120004;-67
2021/04/08 10:28:49;;;;;;;9.23;3.92;;;;;;;12.39;39.72;102324.16;4887957;28;117946;-67
2021/04/08 10:31:43;;;;;;;6.82;4.10;;;;;;;12.41;39.49;102329.41;4887752;28;123020;-67
2021/04/08 10:34:14;;;;;;;7.35;4.22;;;;;;;12.40;39.48;102330.34;4887809;28;124270;-67
2021/04/08 10:36:53;;;;;;;7.72;4.65;;;;;;;12.40;39.02;102319.72;4888630;28;119753;-68
2021/04/08 10:39:24;;;;;;;6.28;4.45;;;;;;;12.36;38.71;102323.38;4886531;28;118839;-68
2021/04/08 10:42:04;;;;;;;6.97;4.75;;;;;;;12.32;38.71;102317.28;4886490;28;124687;-65
2021/04/08 10:44:44;;;;;;;9.05;4.80;;;;;;;12.30;38.81;102312.91;4886815;28;124205;-66
2021/04/08 10:47:14;;;;;;;11.73;4.90;;;;;;;12.31;38.86;102309.34;4887695;28;119191;-66
2021/04/08 10:49:46;;;;;;;8.05;4.65;;;;;;;12.33;38.85;102310.19;4887939;28;119000;-67
2021/04/08 10:52:16;;;;;;;9.20;5.43;;;;;;;12.37;38.58;102319.81;4888003;28;122127;-67
2021/04/08 10:54:47;;;;;;;9.45;5.00;;;;;;;12.40;38.44;102319.72;4889627;28;123859;-67
2021/04/08 10:57:16;;;;;;;6.15;5.13;;;;;;;12.42;38.43;102328.53;4887542;28;119462;-67
2021/04/08 10:59:44;;;;;;;7.50;5.03;;;;;;;12.42;38.45;102324.06;4889878;28;118919;-66
2021/04/08 11:02:29;;;;;;;6.22;4.60;;;;;;;12.41;38.29;102321.44;4889274;28;123162;-67
2021/04/08 11:05:22;;;;;;;8.77;5.13;;;;;;;12.41;38.03;102314.38;4886636;28;123892;-66
2021/04/08 11:07:52;;;;;;;7.03;5.10;;;;;;;12.42;38.42;102312.56;4888240;28;120923;-66
2021/04/08 11:10:27;;;;;;;9.43;5.35;;;;;;;12.44;38.17;102318.72;4888978;28;120901;-66
2021/04/08 11:12:55;;;;;;;7.15;5.47;;;;;;;12.47;38.39;102315.97;4888899;28;124963;-66
2021/04/08 11:15:24;;;;;;;11.40;5.07;;;;;;;12.51;38.37;102311.41;4888412;28;124107;-66
2021/04/08 11:17:53;;;;;;;9.30;5.43;;;;;;;12.53;38.21;102299.84;4888421;28;119676;-66
2021/04/08 11:20:31;;;;;;;10.95;6.18;;;;;;;12.57;37.95;102306.81;4884973;28;118697;-66
2021/04/08 11:22:58;;;;;;;10.80;6.05;;;;;;;12.58;38.04;102305.91;4884833;28;123936;-66
2021/04/08 11:25:29;;;;;;;7.70;5.68;;;;;;;12.60;37.78;102301.41;4889135;28;124667;-66
2021/04/08 11:27:58;;;;;;;9.45;6.20;;;;;;;12.63;37.58;102301.28;4887575;28;119697;-66
2021/04/08 11:30:28;;;;;;;8.75;6.20;;;;;;;12.66;37.86;102301.22;4887662;28;119697;-66
2021/04/08 11:32:57;;;;;;;10.02;6.00;;;;;;;12.71;37.91;102293.09;4886981;28;124890;-68
2021/04/08 11:35:30;;;;;;;9.70;6.50;;;;;;;12.77;37.82;102302.66;4890595;28;122664;-67